sensor_id;sensor_type;location;lat;lon;timestamp;P1;durP1;ratioP1;P2;durP2;ratioP2
61344;SDS011;47216;42.656;23.232;2023-06-19T00:00:14;4.60;;;3.57;;
61344;SDS011;47216;42.656;23.232;2023-06-19T00:02:45;4.77;;;3.17;;
61344;SDS011;47216;42.656;23.232;2023-06-19T00:05:16;6.10;;;4.03;;
61344;SDS011;47216;42.656;23.232;2023-06-19T00:07:44;4.43;;;3.40;;
61344;SDS011;47216;42.656;23.232;2023-06-19T00:10:14;5.07;;;3.33;;
61344;SDS011;47216;42.656;23.232;2023-06-19T00:12:43;3.57;;;3.00;;
61344;SDS011;47216;42.656;23.232;2023-06-19T00:15:10;4.60;;;3.10;;
61344;SDS011;47216;42.656;23.232;2023-06-19T00:17:41;6.73;;;3.33;;
61344;SDS011;47216;42.656;23.232;2023-06-19T00:20:12;6.13;;;4.10;;
61344;SDS011;47216;42.656;23.232;2023-06-19T00:22:43;6.83;;;3.70;;
61344;SDS011;47216;42.656;23.232;2023-06-19T00:25:16;7.60;;;3.13;;
61344;SDS011;47216;42.656;23.232;2023-06-19T00:27:48;6.00;;;3.87;;
61344;SDS011;47216;42.656;23.232;2023-06-19T00:30:17;6.93;;;3.23;;
61344;SDS011;47216;42.656;23.232;2023-06-19T00:32:46;8.37;;;2.87;;
61344;SDS011;47216;42.656;23.232;2023-06-19T00:35:19;6.50;;;3.37;;
61344;SDS011;47216;42.656;23.232;2023-06-19T00:37:50;5.33;;;3.50;;
61344;SDS011;47216;42.656;23.232;2023-06-19T00:40:25;4.90;;;3.07;;
61344;SDS011;47216;42.656;23.232;2023-06-19T00:42:54;4.30;;;3.30;;
61344;SDS011;47216;42.656;23.232;2023-06-19T00:45:25;4.67;;;3.43;;
61344;SDS011;47216;42.656;23.232;2023-06-19T00:47:56;4.20;;;3.33;;
61344;SDS011;47216;42.656;23.232;2023-06-19T00:50:29;6.70;;;4.23;;
61344;SDS011;47216;42.656;23.232;2023-06-19T00:53:00;9.67;;;3.70;;
61344;SDS011;47216;42.656;23.232;2023-06-19T00:55:35;5.70;;;3.47;;
61344;SDS011;47216;42.656;23.232;2023-06-19T00:58:10;6.23;;;3.27;;
61344;SDS011;47216;42.656;23.232;2023-06-19T01:00:43;4.57;;;3.50;;
61344;SDS011;47216;42.656;23.232;2023-06-19T01:03:17;11.03;;;3.50;;
61344;SDS011;47216;42.656;23.232;2023-06-19T01:05:48;6.30;;;3.63;;
61344;SDS011;47216;42.656;23.232;2023-06-19T01:08:28;5.93;;;3.63;;
61344;SDS011;47216;42.656;23.232;2023-06-19T01:11:15;6.17;;;3.50;;
61344;SDS011;47216;42.656;23.232;2023-06-19T01:13:50;5.00;;;3.73;;
61344;SDS011;47216;42.656;23.232;2023-06-19T01:16:35;5.90;;;3.80;;
61344;SDS011;47216;42.656;23.232;2023-06-19T01:19:15;8.30;;;3.50;;
61344;SDS011;47216;42.656;23.232;2023-06-19T01:24:39;10.60;;;3.80;;
61344;SDS011;47216;42.656;23.232;2023-06-19T01:27:18;5.17;;;3.80;;
61344;SDS011;47216;42.656;23.232;2023-06-19T01:29:49;3.97;;;3.20;;
61344;SDS011;47216;42.656;23.232;2023-06-19T01:35:19;8.17;;;3.20;;
61344;SDS011;47216;42.656;23.232;2023-06-19T01:38:10;5.03;;;3.60;;
61344;SDS011;47216;42.656;23.232;2023-06-19T01:40:48;6.30;;;3.50;;
61344;SDS011;47216;42.656;23.232;2023-06-19T01:43:37;4.63;;;3.67;;
61344;SDS011;47216;42.656;23.232;2023-06-19T01:46:20;4.57;;;3.40;;
61344;SDS011;47216;42.656;23.232;2023-06-19T01:48:51;7.03;;;3.50;;
61344;SDS011;47216;42.656;23.232;2023-06-19T01:51:32;4.63;;;3.63;;
61344;SDS011;47216;42.656;23.232;2023-06-19T01:57:06;5.17;;;3.87;;
61344;SDS011;47216;42.656;23.232;2023-06-19T01:59:51;7.70;;;3.80;;
61344;SDS011;47216;42.656;23.232;2023-06-19T02:02:21;10.03;;;3.77;;
61344;SDS011;47216;42.656;23.232;2023-06-19T02:05:02;4.23;;;3.77;;
61344;SDS011;47216;42.656;23.232;2023-06-19T02:07:33;6.10;;;3.50;;
61344;SDS011;47216;42.656;23.232;2023-06-19T02:10:28;5.20;;;3.43;;
61344;SDS011;47216;42.656;23.232;2023-06-19T02:13:03;4.17;;;3.10;;
61344;SDS011;47216;42.656;23.232;2023-06-19T02:15:36;6.73;;;4.10;;
61344;SDS011;47216;42.656;23.232;2023-06-19T02:18:22;4.50;;;3.83;;
61344;SDS011;47216;42.656;23.232;2023-06-19T02:21:07;12.70;;;4.20;;
61344;SDS011;47216;42.656;23.232;2023-06-19T02:23:41;8.57;;;4.07;;
61344;SDS011;47216;42.656;23.232;2023-06-19T02:29:11;6.63;;;5.03;;
61344;SDS011;47216;42.656;23.232;2023-06-19T02:32:02;4.50;;;3.90;;
61344;SDS011;47216;42.656;23.232;2023-06-19T02:34:41;6.83;;;4.27;;
61344;SDS011;47216;42.656;23.232;2023-06-19T02:37:23;5.63;;;4.23;;
61344;SDS011;47216;42.656;23.232;2023-06-19T02:40:06;5.33;;;4.33;;
61344;SDS011;47216;42.656;23.232;2023-06-19T02:42:44;6.93;;;4.37;;
61344;SDS011;47216;42.656;23.232;2023-06-19T02:45:36;11.40;;;4.40;;
61344;SDS011;47216;42.656;23.232;2023-06-19T02:48:11;9.40;;;4.40;;
61344;SDS011;47216;42.656;23.232;2023-06-19T02:50:49;7.83;;;4.83;;
61344;SDS011;47216;42.656;23.232;2023-06-19T02:53:38;8.20;;;4.77;;
61344;SDS011;47216;42.656;23.232;2023-06-19T02:56:12;6.07;;;4.60;;
61344;SDS011;47216;42.656;23.232;2023-06-19T02:59:04;5.03;;;4.20;;
61344;SDS011;47216;42.656;23.232;2023-06-19T03:01:41;6.37;;;4.33;;
61344;SDS011;47216;42.656;23.232;2023-06-19T03:04:19;6.33;;;4.43;;
61344;SDS011;47216;42.656;23.232;2023-06-19T03:07:11;6.10;;;4.40;;
61344;SDS011;47216;42.656;23.232;2023-06-19T03:09:44;7.73;;;4.53;;
61344;SDS011;47216;42.656;23.232;2023-06-19T03:12:34;6.57;;;4.30;;
61344;SDS011;47216;42.656;23.232;2023-06-19T03:15:13;10.47;;;4.70;;
61344;SDS011;47216;42.656;23.232;2023-06-19T03:18:04;6.93;;;4.43;;
61344;SDS011;47216;42.656;23.232;2023-06-19T03:20:44;7.03;;;4.40;;
61344;SDS011;47216;42.656;23.232;2023-06-19T03:23:30;10.50;;;4.70;;
61344;SDS011;47216;42.656;23.232;2023-06-19T03:26:01;5.83;;;4.57;;
61344;SDS011;47216;42.656;23.232;2023-06-19T03:28:40;12.37;;;4.53;;
61344;SDS011;47216;42.656;23.232;2023-06-19T03:31:17;5.00;;;4.17;;
61344;SDS011;47216;42.656;23.232;2023-06-19T03:34:00;4.70;;;4.00;;
61344;SDS011;47216;42.656;23.232;2023-06-19T03:36:38;7.47;;;4.40;;
61344;SDS011;47216;42.656;23.232;2023-06-19T03:39:14;6.10;;;4.57;;
61344;SDS011;47216;42.656;23.232;2023-06-19T03:41:52;6.97;;;4.63;;
61344;SDS011;47216;42.656;23.232;2023-06-19T03:44:39;6.90;;;4.97;;
61344;SDS011;47216;42.656;23.232;2023-06-19T03:47:16;10.20;;;5.03;;
61344;SDS011;47216;42.656;23.232;2023-06-19T03:49:58;6.47;;;4.73;;
61344;SDS011;47216;42.656;23.232;2023-06-19T03:52:44;8.03;;;4.43;;
61344;SDS011;47216;42.656;23.232;2023-06-19T03:55:25;7.77;;;4.60;;
61344;SDS011;47216;42.656;23.232;2023-06-19T03:58:00;8.40;;;5.00;;
61344;SDS011;47216;42.656;23.232;2023-06-19T04:00:44;4.83;;;4.27;;
61344;SDS011;47216;42.656;23.232;2023-06-19T04:03:34;4.43;;;3.77;;
61344;SDS011;47216;42.656;23.232;2023-06-19T04:06:14;6.23;;;4.43;;
61344;SDS011;47216;42.656;23.232;2023-06-19T04:08:45;4.57;;;3.70;;
61344;SDS011;47216;42.656;23.232;2023-06-19T04:11:34;10.90;;;4.63;;
61344;SDS011;47216;42.656;23.232;2023-06-19T04:14:13;9.07;;;4.40;;
61344;SDS011;47216;42.656;23.232;2023-06-19T04:17:01;5.40;;;4.27;;
61344;SDS011;47216;42.656;23.232;2023-06-19T04:19:38;9.23;;;4.03;;
61344;SDS011;47216;42.656;23.232;2023-06-19T04:22:23;7.03;;;4.20;;
61344;SDS011;47216;42.656;23.232;2023-06-19T04:25:05;9.93;;;4.30;;
61344;SDS011;47216;42.656;23.232;2023-06-19T04:27:36;6.57;;;4.10;;
61344;SDS011;47216;42.656;23.232;2023-06-19T04:30:18;5.37;;;4.20;;
61344;SDS011;47216;42.656;23.232;2023-06-19T04:33:05;6.23;;;4.17;;
61344;SDS011;47216;42.656;23.232;2023-06-19T04:35:41;5.13;;;4.30;;
61344;SDS011;47216;42.656;23.232;2023-06-19T04:38:34;9.17;;;4.60;;
61344;SDS011;47216;42.656;23.232;2023-06-19T04:44:08;5.10;;;3.60;;
61344;SDS011;47216;42.656;23.232;2023-06-19T04:46:42;6.83;;;4.27;;
61344;SDS011;47216;42.656;23.232;2023-06-19T04:49:31;4.63;;;3.90;;
61344;SDS011;47216;42.656;23.232;2023-06-19T04:52:23;6.73;;;3.90;;
61344;SDS011;47216;42.656;23.232;2023-06-19T04:55:20;3.90;;;3.50;;
61344;SDS011;47216;42.656;23.232;2023-06-19T04:58:05;4.97;;;4.10;;
61344;SDS011;47216;42.656;23.232;2023-06-19T05:00:40;4.73;;;3.67;;
61344;SDS011;47216;42.656;23.232;2023-06-19T05:03:23;7.90;;;4.50;;
61344;SDS011;47216;42.656;23.232;2023-06-19T05:09:01;4.70;;;3.70;;
61344;SDS011;47216;42.656;23.232;2023-06-19T05:11:33;4.57;;;3.77;;
61344;SDS011;47216;42.656;23.232;2023-06-19T05:16:53;7.43;;;4.50;;
61344;SDS011;47216;42.656;23.232;2023-06-19T05:19:45;8.83;;;3.50;;
61344;SDS011;47216;42.656;23.232;2023-06-19T05:22:23;8.33;;;3.70;;
61344;SDS011;47216;42.656;23.232;2023-06-19T05:25:08;6.07;;;3.60;;
61344;SDS011;47216;42.656;23.232;2023-06-19T05:27:53;10.83;;;3.50;;
61344;SDS011;47216;42.656;23.232;2023-06-19T05:30:24;5.43;;;3.40;;
61344;SDS011;47216;42.656;23.232;2023-06-19T05:33:18;7.57;;;3.70;;
61344;SDS011;47216;42.656;23.232;2023-06-19T05:35:53;4.27;;;3.47;;
61344;SDS011;47216;42.656;23.232;2023-06-19T05:38:46;5.70;;;3.00;;
61344;SDS011;47216;42.656;23.232;2023-06-19T05:41:23;5.57;;;3.33;;
61344;SDS011;47216;42.656;23.232;2023-06-19T05:44:06;7.10;;;4.17;;
61344;SDS011;47216;42.656;23.232;2023-06-19T05:46:35;5.57;;;3.80;;
61344;SDS011;47216;42.656;23.232;2023-06-19T05:49:02;4.47;;;3.47;;
61344;SDS011;47216;42.656;23.232;2023-06-19T05:51:32;4.30;;;3.37;;
61344;SDS011;47216;42.656;23.232;2023-06-19T05:54:01;4.80;;;3.10;;
61344;SDS011;47216;42.656;23.232;2023-06-19T05:56:32;5.87;;;3.03;;
61344;SDS011;47216;42.656;23.232;2023-06-19T05:59:02;4.13;;;3.07;;
61344;SDS011;47216;42.656;23.232;2023-06-19T06:01:30;4.10;;;3.13;;
61344;SDS011;47216;42.656;23.232;2023-06-19T06:03:59;4.37;;;3.27;;
61344;SDS011;47216;42.656;23.232;2023-06-19T06:06:31;8.23;;;3.10;;
61344;SDS011;47216;42.656;23.232;2023-06-19T06:09:01;4.63;;;3.20;;
61344;SDS011;47216;42.656;23.232;2023-06-19T06:11:29;6.20;;;3.10;;
61344;SDS011;47216;42.656;23.232;2023-06-19T06:14:03;7.37;;;3.67;;
61344;SDS011;47216;42.656;23.232;2023-06-19T06:16:31;5.13;;;2.78;;
61344;SDS011;47216;42.656;23.232;2023-06-19T06:19:00;5.03;;;3.17;;
61344;SDS011;47216;42.656;23.232;2023-06-19T06:21:28;5.17;;;3.00;;
61344;SDS011;47216;42.656;23.232;2023-06-19T06:23:56;4.67;;;3.50;;
61344;SDS011;47216;42.656;23.232;2023-06-19T06:26:24;4.63;;;3.30;;
61344;SDS011;47216;42.656;23.232;2023-06-19T06:28:54;4.32;;;3.35;;
61344;SDS011;47216;42.656;23.232;2023-06-19T06:31:23;3.30;;;3.00;;
61344;SDS011;47216;42.656;23.232;2023-06-19T06:33:52;3.45;;;2.85;;
61344;SDS011;47216;42.656;23.232;2023-06-19T06:36:19;3.92;;;3.15;;
61344;SDS011;47216;42.656;23.232;2023-06-19T06:38:46;5.63;;;2.87;;
61344;SDS011;47216;42.656;23.232;2023-06-19T06:41:13;4.18;;;3.15;;
61344;SDS011;47216;42.656;23.232;2023-06-19T06:43:41;4.13;;;2.97;;
61344;SDS011;47216;42.656;23.232;2023-06-19T06:46:11;3.38;;;2.70;;
61344;SDS011;47216;42.656;23.232;2023-06-19T06:48:41;3.58;;;3.05;;
61344;SDS011;47216;42.656;23.232;2023-06-19T06:51:11;2.88;;;2.53;;
61344;SDS011;47216;42.656;23.232;2023-06-19T06:53:42;4.05;;;2.90;;
61344;SDS011;47216;42.656;23.232;2023-06-19T06:56:12;3.33;;;3.03;;
61344;SDS011;47216;42.656;23.232;2023-06-19T06:58:40;4.20;;;3.00;;
61344;SDS011;47216;42.656;23.232;2023-06-19T07:01:11;3.90;;;3.10;;
61344;SDS011;47216;42.656;23.232;2023-06-19T07:03:39;3.92;;;3.03;;
61344;SDS011;47216;42.656;23.232;2023-06-19T07:06:07;3.17;;;2.88;;
61344;SDS011;47216;42.656;23.232;2023-06-19T07:08:35;3.55;;;3.22;;
61344;SDS011;47216;42.656;23.232;2023-06-19T07:11:06;2.83;;;2.50;;
61344;SDS011;47216;42.656;23.232;2023-06-19T07:13:34;3.08;;;2.78;;
61344;SDS011;47216;42.656;23.232;2023-06-19T07:16:04;3.63;;;2.92;;
61344;SDS011;47216;42.656;23.232;2023-06-19T07:18:34;3.00;;;2.70;;
61344;SDS011;47216;42.656;23.232;2023-06-19T07:21:03;2.90;;;2.60;;
61344;SDS011;47216;42.656;23.232;2023-06-19T07:23:38;4.05;;;2.78;;
61344;SDS011;47216;42.656;23.232;2023-06-19T07:26:08;3.65;;;2.63;;
61344;SDS011;47216;42.656;23.232;2023-06-19T07:28:36;6.18;;;3.08;;
61344;SDS011;47216;42.656;23.232;2023-06-19T07:31:06;5.28;;;2.80;;
61344;SDS011;47216;42.656;23.232;2023-06-19T07:33:36;4.93;;;2.45;;
61344;SDS011;47216;42.656;23.232;2023-06-19T07:36:05;5.75;;;2.88;;
61344;SDS011;47216;42.656;23.232;2023-06-19T07:38:33;5.18;;;2.88;;
61344;SDS011;47216;42.656;23.232;2023-06-19T07:41:01;3.17;;;2.88;;
61344;SDS011;47216;42.656;23.232;2023-06-19T07:43:30;5.53;;;3.10;;
61344;SDS011;47216;42.656;23.232;2023-06-19T07:45:57;5.75;;;2.72;;
61344;SDS011;47216;42.656;23.232;2023-06-19T07:48:25;4.80;;;2.80;;
61344;SDS011;47216;42.656;23.232;2023-06-19T07:50:54;6.10;;;2.88;;
61344;SDS011;47216;42.656;23.232;2023-06-19T07:53:21;3.75;;;3.03;;
61344;SDS011;47216;42.656;23.232;2023-06-19T07:55:48;4.60;;;2.97;;
61344;SDS011;47216;42.656;23.232;2023-06-19T07:58:16;2.90;;;2.60;;
61344;SDS011;47216;42.656;23.232;2023-06-19T08:00:44;4.63;;;2.60;;
61344;SDS011;47216;42.656;23.232;2023-06-19T08:03:11;3.30;;;3.00;;
61344;SDS011;47216;42.656;23.232;2023-06-19T08:05:38;3.42;;;2.60;;
61344;SDS011;47216;42.656;23.232;2023-06-19T08:08:07;4.43;;;2.80;;
61344;SDS011;47216;42.656;23.232;2023-06-19T08:10:34;3.22;;;2.92;;
61344;SDS011;47216;42.656;23.232;2023-06-19T08:13:01;3.25;;;2.95;;
61344;SDS011;47216;42.656;23.232;2023-06-19T08:15:28;3.50;;;2.78;;
61344;SDS011;47216;42.656;23.232;2023-06-19T08:17:55;4.07;;;2.85;;
61344;SDS011;47216;42.656;23.232;2023-06-19T08:20:22;2.40;;;2.20;;
61344;SDS011;47216;42.656;23.232;2023-06-19T08:22:49;3.42;;;2.67;;
61344;SDS011;47216;42.656;23.232;2023-06-19T08:25:17;3.10;;;2.38;;
61344;SDS011;47216;42.656;23.232;2023-06-19T08:27:44;2.50;;;2.30;;
61344;SDS011;47216;42.656;23.232;2023-06-19T08:30:11;4.60;;;2.65;;
61344;SDS011;47216;42.656;23.232;2023-06-19T08:32:45;3.05;;;2.50;;
61344;SDS011;47216;42.656;23.232;2023-06-19T08:35:13;3.50;;;2.67;;
61344;SDS011;47216;42.656;23.232;2023-06-19T08:37:41;6.97;;;2.63;;
61344;SDS011;47216;42.656;23.232;2023-06-19T08:40:11;4.25;;;2.78;;
61344;SDS011;47216;42.656;23.232;2023-06-19T08:42:41;3.40;;;2.65;;
61344;SDS011;47216;42.656;23.232;2023-06-19T08:45:10;3.75;;;2.33;;
61344;SDS011;47216;42.656;23.232;2023-06-19T08:47:43;3.35;;;2.55;;
61344;SDS011;47216;42.656;23.232;2023-06-19T08:50:11;3.65;;;2.55;;
61344;SDS011;47216;42.656;23.232;2023-06-19T08:52:39;4.40;;;2.38;;
61344;SDS011;47216;42.656;23.232;2023-06-19T08:55:08;7.22;;;2.92;;
61344;SDS011;47216;42.656;23.232;2023-06-19T08:57:38;4.13;;;2.90;;
61344;SDS011;47216;42.656;23.232;2023-06-19T09:00:10;3.13;;;2.80;;
61344;SDS011;47216;42.656;23.232;2023-06-19T09:02:43;2.53;;;2.33;;
61344;SDS011;47216;42.656;23.232;2023-06-19T09:05:14;4.57;;;2.63;;
61344;SDS011;47216;42.656;23.232;2023-06-19T09:07:44;4.32;;;2.33;;
61344;SDS011;47216;42.656;23.232;2023-06-19T09:10:21;4.22;;;2.53;;
61344;SDS011;47216;42.656;23.232;2023-06-19T09:12:58;5.78;;;2.50;;
61344;SDS011;47216;42.656;23.232;2023-06-19T09:15:27;2.72;;;2.30;;
61344;SDS011;47216;42.656;23.232;2023-06-19T09:18:01;4.50;;;2.65;;
61344;SDS011;47216;42.656;23.232;2023-06-19T09:20:30;3.08;;;2.50;;
61344;SDS011;47216;42.656;23.232;2023-06-19T09:22:59;3.83;;;2.72;;
61344;SDS011;47216;42.656;23.232;2023-06-19T09:25:27;3.10;;;2.80;;
61344;SDS011;47216;42.656;23.232;2023-06-19T09:27:55;4.00;;;2.65;;
61344;SDS011;47216;42.656;23.232;2023-06-19T09:30:24;3.30;;;2.80;;
61344;SDS011;47216;42.656;23.232;2023-06-19T09:32:51;3.70;;;2.70;;
61344;SDS011;47216;42.656;23.232;2023-06-19T09:35:19;4.07;;;2.83;;
61344;SDS011;47216;42.656;23.232;2023-06-19T09:37:46;3.17;;;2.63;;
61344;SDS011;47216;42.656;23.232;2023-06-19T09:40:14;3.22;;;2.55;;
61344;SDS011;47216;42.656;23.232;2023-06-19T09:42:43;4.50;;;2.72;;
61344;SDS011;47216;42.656;23.232;2023-06-19T09:45:12;3.55;;;2.83;;
61344;SDS011;47216;42.656;23.232;2023-06-19T09:47:45;3.50;;;2.78;;
61344;SDS011;47216;42.656;23.232;2023-06-19T09:50:14;3.63;;;2.90;;
61344;SDS011;47216;42.656;23.232;2023-06-19T09:52:43;3.88;;;2.78;;
61344;SDS011;47216;42.656;23.232;2023-06-19T09:55:13;3.72;;;2.63;;
61344;SDS011;47216;42.656;23.232;2023-06-19T09:57:41;6.05;;;2.97;;
61344;SDS011;47216;42.656;23.232;2023-06-19T10:00:14;4.40;;;3.00;;
61344;SDS011;47216;42.656;23.232;2023-06-19T10:02:49;5.35;;;3.10;;
61344;SDS011;47216;42.656;23.232;2023-06-19T10:05:17;3.05;;;2.70;;
61344;SDS011;47216;42.656;23.232;2023-06-19T10:07:55;5.40;;;2.95;;
61344;SDS011;47216;42.656;23.232;2023-06-19T10:10:25;3.70;;;3.03;;
61344;SDS011;47216;42.656;23.232;2023-06-19T10:12:55;3.95;;;2.83;;
61344;SDS011;47216;42.656;23.232;2023-06-19T10:15:25;4.57;;;2.95;;
61344;SDS011;47216;42.656;23.232;2023-06-19T10:18:00;3.47;;;3.08;;
61344;SDS011;47216;42.656;23.232;2023-06-19T10:20:29;4.75;;;3.22;;
61344;SDS011;47216;42.656;23.232;2023-06-19T10:22:58;6.85;;;3.58;;
61344;SDS011;47216;42.656;23.232;2023-06-19T10:25:28;4.95;;;2.67;;
61344;SDS011;47216;42.656;23.232;2023-06-19T10:27:58;3.28;;;2.53;;
61344;SDS011;47216;42.656;23.232;2023-06-19T10:30:26;7.50;;;2.90;;
61344;SDS011;47216;42.656;23.232;2023-06-19T10:32:54;4.88;;;3.10;;
61344;SDS011;47216;42.656;23.232;2023-06-19T10:35:23;4.55;;;2.40;;
61344;SDS011;47216;42.656;23.232;2023-06-19T10:37:51;2.72;;;2.50;;
61344;SDS011;47216;42.656;23.232;2023-06-19T10:40:18;2.78;;;2.50;;
61344;SDS011;47216;42.656;23.232;2023-06-19T10:42:46;3.30;;;2.70;;
61344;SDS011;47216;42.656;23.232;2023-06-19T10:45:15;3.42;;;2.67;;
61344;SDS011;47216;42.656;23.232;2023-06-19T10:47:43;3.22;;;2.78;;
61344;SDS011;47216;42.656;23.232;2023-06-19T10:50:11;4.82;;;2.78;;
61344;SDS011;47216;42.656;23.232;2023-06-19T10:52:42;6.85;;;2.90;;
61344;SDS011;47216;42.656;23.232;2023-06-19T10:55:12;3.72;;;2.80;;
61344;SDS011;47216;42.656;23.232;2023-06-19T10:57:43;3.13;;;2.70;;
61344;SDS011;47216;42.656;23.232;2023-06-19T11:00:21;8.60;;;2.92;;
61344;SDS011;47216;42.656;23.232;2023-06-19T11:02:51;3.45;;;2.60;;
61344;SDS011;47216;42.656;23.232;2023-06-19T11:05:20;5.07;;;3.15;;
61344;SDS011;47216;42.656;23.232;2023-06-19T11:07:55;3.05;;;2.75;;
61344;SDS011;47216;42.656;23.232;2023-06-19T11:10:23;3.17;;;2.88;;
61344;SDS011;47216;42.656;23.232;2023-06-19T11:12:53;3.35;;;2.60;;
61344;SDS011;47216;42.656;23.232;2023-06-19T11:15:29;3.92;;;3.00;;
61344;SDS011;47216;42.656;23.232;2023-06-19T11:17:58;3.10;;;2.67;;
61344;SDS011;47216;42.656;23.232;2023-06-19T11:20:27;3.60;;;2.90;;
61344;SDS011;47216;42.656;23.232;2023-06-19T11:22:59;5.28;;;3.17;;
61344;SDS011;47216;42.656;23.232;2023-06-19T11:25:38;3.80;;;3.13;;
61344;SDS011;47216;42.656;23.232;2023-06-19T11:31:05;3.75;;;3.33;;
61344;SDS011;47216;42.656;23.232;2023-06-19T11:33:38;7.57;;;3.67;;
61344;SDS011;47216;42.656;23.232;2023-06-19T11:36:08;3.35;;;3.05;;
61344;SDS011;47216;42.656;23.232;2023-06-19T11:38:41;5.65;;;2.90;;
61344;SDS011;47216;42.656;23.232;2023-06-19T11:41:37;4.75;;;3.40;;
61344;SDS011;47216;42.656;23.232;2023-06-19T11:44:08;3.40;;;2.95;;
61344;SDS011;47216;42.656;23.232;2023-06-19T11:46:56;7.35;;;3.10;;
61344;SDS011;47216;42.656;23.232;2023-06-19T11:49:38;3.72;;;3.15;;
61344;SDS011;47216;42.656;23.232;2023-06-19T11:52:08;3.35;;;3.05;;
61344;SDS011;47216;42.656;23.232;2023-06-19T11:54:51;3.22;;;2.88;;
61344;SDS011;47216;42.656;23.232;2023-06-19T11:57:37;10.70;;;3.00;;
61344;SDS011;47216;42.656;23.232;2023-06-19T12:00:29;3.88;;;3.00;;
61344;SDS011;47216;42.656;23.232;2023-06-19T12:03:09;4.10;;;3.47;;
61344;SDS011;47216;42.656;23.232;2023-06-19T12:05:51;9.60;;;3.83;;
61344;SDS011;47216;42.656;23.232;2023-06-19T12:08:36;5.03;;;2.97;;
61344;SDS011;47216;42.656;23.232;2023-06-19T12:11:09;7.15;;;3.40;;
61344;SDS011;47216;42.656;23.232;2023-06-19T12:13:51;3.70;;;3.00;;
61344;SDS011;47216;42.656;23.232;2023-06-19T12:16:29;4.82;;;3.47;;
61344;SDS011;47216;42.656;23.232;2023-06-19T12:19:09;4.88;;;3.38;;
61344;SDS011;47216;42.656;23.232;2023-06-19T12:24:35;4.65;;;3.45;;
61344;SDS011;47216;42.656;23.232;2023-06-19T12:27:09;3.70;;;3.03;;
61344;SDS011;47216;42.656;23.232;2023-06-19T12:29:51;4.32;;;3.25;;
61344;SDS011;47216;42.656;23.232;2023-06-19T12:32:38;3.67;;;3.30;;
61344;SDS011;47216;42.656;23.232;2023-06-19T12:35:21;4.25;;;3.30;;
61344;SDS011;47216;42.656;23.232;2023-06-19T12:38:07;3.95;;;3.15;;
61344;SDS011;47216;42.656;23.232;2023-06-19T12:40:56;3.40;;;2.88;;
61344;SDS011;47216;42.656;23.232;2023-06-19T12:43:41;3.92;;;3.30;;
61344;SDS011;47216;42.656;23.232;2023-06-19T12:46:30;3.80;;;3.33;;
61344;SDS011;47216;42.656;23.232;2023-06-19T12:49:09;5.97;;;3.05;;
61344;SDS011;47216;42.656;23.232;2023-06-19T12:51:57;6.05;;;3.58;;
61344;SDS011;47216;42.656;23.232;2023-06-19T12:54:39;5.18;;;3.00;;
61344;SDS011;47216;42.656;23.232;2023-06-19T12:57:28;3.15;;;2.85;;
61344;SDS011;47216;42.656;23.232;2023-06-19T13:00:10;5.22;;;3.60;;
61344;SDS011;47216;42.656;23.232;2023-06-19T13:03:00;3.83;;;3.42;;
61344;SDS011;47216;42.656;23.232;2023-06-19T13:05:56;4.70;;;3.33;;
61344;SDS011;47216;42.656;23.232;2023-06-19T13:08:52;3.95;;;2.78;;
61344;SDS011;47216;42.656;23.232;2023-06-19T13:11:33;3.28;;;2.97;;
61344;SDS011;47216;42.656;23.232;2023-06-19T13:14:08;3.95;;;2.95;;
61344;SDS011;47216;42.656;23.232;2023-06-19T13:16:57;7.82;;;3.20;;
61344;SDS011;47216;42.656;23.232;2023-06-19T13:19:35;6.95;;;5.00;;
61344;SDS011;47216;42.656;23.232;2023-06-19T13:22:13;5.10;;;3.22;;
61344;SDS011;47216;42.656;23.232;2023-06-19T13:25:05;4.38;;;3.03;;
61344;SDS011;47216;42.656;23.232;2023-06-19T13:27:35;5.68;;;3.25;;
61344;SDS011;47216;42.656;23.232;2023-06-19T13:30:23;4.70;;;3.13;;
61344;SDS011;47216;42.656;23.232;2023-06-19T13:33:05;6.03;;;2.97;;
61344;SDS011;47216;42.656;23.232;2023-06-19T13:35:36;4.97;;;3.03;;
61344;SDS011;47216;42.656;23.232;2023-06-19T13:38:11;3.75;;;3.38;;
61344;SDS011;47216;42.656;23.232;2023-06-19T13:40:55;3.75;;;3.42;;
61344;SDS011;47216;42.656;23.232;2023-06-19T13:43:34;4.00;;;3.05;;
61344;SDS011;47216;42.656;23.232;2023-06-19T13:46:06;4.57;;;3.20;;
61344;SDS011;47216;42.656;23.232;2023-06-19T13:48:40;3.75;;;3.10;;
61344;SDS011;47216;42.656;23.232;2023-06-19T13:51:35;4.25;;;3.08;;
61344;SDS011;47216;42.656;23.232;2023-06-19T13:54:14;4.20;;;3.03;;
61344;SDS011;47216;42.656;23.232;2023-06-19T13:57:05;6.63;;;3.25;;
61344;SDS011;47216;42.656;23.232;2023-06-19T13:59:44;4.88;;;3.10;;
61344;SDS011;47216;42.656;23.232;2023-06-19T14:02:31;6.25;;;2.83;;
61344;SDS011;47216;42.656;23.232;2023-06-19T14:05:08;4.32;;;3.05;;
61344;SDS011;47216;42.656;23.232;2023-06-19T14:07:41;4.05;;;3.30;;
61344;SDS011;47216;42.656;23.232;2023-06-19T14:10:33;3.67;;;2.70;;
61344;SDS011;47216;42.656;23.232;2023-06-19T14:13:11;3.55;;;2.95;;
61344;SDS011;47216;42.656;23.232;2023-06-19T14:15:46;4.72;;;3.28;;
61344;SDS011;47216;42.656;23.232;2023-06-19T14:18:24;4.05;;;3.08;;
61344;SDS011;47216;42.656;23.232;2023-06-19T14:21:06;3.47;;;3.00;;
61344;SDS011;47216;42.656;23.232;2023-06-19T14:23:34;4.35;;;3.17;;
61344;SDS011;47216;42.656;23.232;2023-06-19T14:26:16;4.95;;;2.58;;
61344;SDS011;47216;42.656;23.232;2023-06-19T14:28:51;5.75;;;3.40;;
61344;SDS011;47216;42.656;23.232;2023-06-19T14:31:27;3.25;;;2.63;;
61344;SDS011;47216;42.656;23.232;2023-06-19T14:34:12;5.00;;;3.05;;
61344;SDS011;47216;42.656;23.232;2023-06-19T14:36:49;5.18;;;3.08;;
61344;SDS011;47216;42.656;23.232;2023-06-19T14:39:29;7.70;;;3.17;;
61344;SDS011;47216;42.656;23.232;2023-06-19T14:42:06;4.82;;;3.10;;
61344;SDS011;47216;42.656;23.232;2023-06-19T14:44:55;10.98;;;3.15;;
61344;SDS011;47216;42.656;23.232;2023-06-19T14:47:35;4.00;;;3.17;;
61344;SDS011;47216;42.656;23.232;2023-06-19T14:50:27;4.25;;;2.53;;
61344;SDS011;47216;42.656;23.232;2023-06-19T14:53:19;6.03;;;2.83;;
61344;SDS011;47216;42.656;23.232;2023-06-19T14:55:48;4.15;;;2.88;;
61344;SDS011;47216;42.656;23.232;2023-06-19T14:58:29;5.20;;;3.13;;
61344;SDS011;47216;42.656;23.232;2023-06-19T15:01:07;4.65;;;2.97;;
61344;SDS011;47216;42.656;23.232;2023-06-19T15:03:48;4.30;;;3.28;;
61344;SDS011;47216;42.656;23.232;2023-06-19T15:06:39;4.50;;;3.20;;
61344;SDS011;47216;42.656;23.232;2023-06-19T15:12:35;8.68;;;3.72;;
61344;SDS011;47216;42.656;23.232;2023-06-19T15:15:25;5.50;;;3.35;;
61344;SDS011;47216;42.656;23.232;2023-06-19T15:18:06;4.22;;;3.00;;
61344;SDS011;47216;42.656;23.232;2023-06-19T15:21:06;4.20;;;3.25;;
61344;SDS011;47216;42.656;23.232;2023-06-19T15:23:50;3.72;;;3.20;;
61344;SDS011;47216;42.656;23.232;2023-06-19T15:30:21;4.00;;;3.22;;
61344;SDS011;47216;42.656;23.232;2023-06-19T15:33:17;6.45;;;3.55;;
61344;SDS011;47216;42.656;23.232;2023-06-19T15:35:51;6.13;;;3.33;;
61344;SDS011;47216;42.656;23.232;2023-06-19T15:38:41;3.75;;;3.10;;
61344;SDS011;47216;42.656;23.232;2023-06-19T15:41:29;3.47;;;3.13;;
61344;SDS011;47216;42.656;23.232;2023-06-19T15:47:35;6.13;;;3.50;;
61344;SDS011;47216;42.656;23.232;2023-06-19T15:50:19;4.28;;;3.40;;
61344;SDS011;47216;42.656;23.232;2023-06-19T15:53:02;6.53;;;3.05;;
61344;SDS011;47216;42.656;23.232;2023-06-19T15:55:51;5.18;;;3.30;;
61344;SDS011;47216;42.656;23.232;2023-06-19T15:58:31;6.82;;;5.28;;
61344;SDS011;47216;42.656;23.232;2023-06-19T16:01:21;7.10;;;5.57;;